Time;durP1;ratioP1;P1;durP2;ratioP2;P2;SDS_P1;SDS_P2;PMS_P1;PMS_P2;Temp;Humidity;BMP_temperature;BMP_pressure;BME280_temperature;BME280_humidity;BME280_pressure;Samples;Min_cycle;Max_cycle;Signal;HPM_P1;HPM_P2
2021/07/17 00:00:29;;;;;;;;;;;18.50;1.00;;;;;;5071356;28;19913;-62
2021/07/17 00:02:54;;;;;;;;;;;18.50;1.00;;;;;;5071097;28;19912;-61
2021/07/17 00:05:20;;;;;;;;;;;18.50;1.00;;;;;;5088424;28;19914;-61
2021/07/17 00:07:46;;;;;;;;;;;18.50;1.00;;;;;;5091197;28;20355;-60
2021/07/17 00:10:19;;;;;;;;;;;18.40;1.00;;;;;;5091351;28;19916;-61
2021/07/17 00:12:44;;;;;;;;;;;18.50;1.00;;;;;;5090219;28;19912;-62
2021/07/17 00:15:11;;;;;;;;;;;18.40;1.00;;;;;;5071748;28;19962;-61
2021/07/17 00:17:36;;;;;;;;;;;18.30;1.00;;;;;;5070715;28;19909;-60
2021/07/17 00:20:05;;;;;;;;;;;18.40;1.00;;;;;;5070690;28;19966;-61
2021/07/17 00:22:30;;;;;;;;;;;18.40;1.00;;;;;;5071287;28;19919;-61
2021/07/17 00:24:56;;;;;;;;;;;18.30;1.00;;;;;;5070929;28;20369;-61
2021/07/17 00:27:21;;;;;;;;;;;18.30;1.00;;;;;;5069148;28;19909;-61
2021/07/17 00:29:47;;;;;;;;;;;18.30;1.00;;;;;;5070952;28;19920;-60
2021/07/17 00:32:12;;;;;;;;;;;18.40;1.00;;;;;;5070698;28;19908;-62
2021/07/17 00:34:38;;;;;;;;;;;18.30;1.00;;;;;;5070544;28;19919;-59
2021/07/17 00:37:03;;;;;;;;;;;18.30;1.00;;;;;;5070446;28;20337;-61
2021/07/17 00:39:29;;;;;;;;;;;18.30;1.00;;;;;;5070097;28;19908;-60
2021/07/17 00:41:54;;;;;;;;;;;18.30;1.00;;;;;;5069230;28;20285;-61
2021/07/17 00:44:20;;;;;;;;;;;18.30;1.00;;;;;;5070758;28;20062;-62
2021/07/17 00:46:46;;;;;;;;;;;18.20;1.00;;;;;;5070714;28;19908;-61
2021/07/17 00:49:12;;;;;;;;;;;18.20;1.00;;;;;;5068869;28;19951;-61
2021/07/17 00:51:37;;;;;;;;;;;18.20;1.00;;;;;;5071047;28;19939;-61
2021/07/17 00:54:03;;;;;;;;;;;18.30;1.00;;;;;;5070455;28;19932;-62
2021/07/17 00:56:29;;;;;;;;;;;18.30;1.00;;;;;;5070134;28;19913;-61
2021/07/17 00:58:58;;;;;;;;;;;18.30;1.00;;;;;;5069431;28;19919;-61
2021/07/17 01:01:25;;;;;;;;;;;18.30;1.00;;;;;;5061984;28;19913;-61
2021/07/17 01:03:51;;;;;;;;;;;18.30;1.00;;;;;;5054665;28;19951;-61
2021/07/17 01:06:17;;;;;;;;;;;18.30;1.00;;;;;;5069920;28;20334;-61
2021/07/17 01:08:42;;;;;;;;;;;18.40;1.00;;;;;;5068799;28;20007;-61
2021/07/17 01:11:08;;;;;;;;;;;18.40;1.00;;;;;;5069716;28;19908;-61
2021/07/17 01:13:33;;;;;;;;;;;18.40;1.00;;;;;;5068956;28;19917;-61
2021/07/17 01:15:59;;;;;;;;;;;18.50;1.00;;;;;;5070012;28;19912;-61
2021/07/17 01:18:24;;;;;;;;;;;18.50;1.00;;;;;;5068809;28;20378;-61
2021/07/17 01:20:50;;;;;;;;;;;18.40;1.00;;;;;;5069607;28;20321;-61
2021/07/17 01:23:18;;;;;;;;;;;18.40;1.00;;;;;;5069524;28;19991;-61
2021/07/17 01:25:44;;;;;;;;;;;18.50;1.00;;;;;;5069523;28;20395;-61
2021/07/17 01:28:09;;;;;;;;;;;18.40;1.00;;;;;;5068384;28;19909;-61
2021/07/17 01:30:36;;;;;;;;;;;18.40;1.00;;;;;;5069632;28;19912;-62
2021/07/17 01:33:02;;;;;;;;;;;18.40;1.00;;;;;;5069761;28;20011;-61
2021/07/17 01:35:28;;;;;;;;;;;18.40;1.00;;;;;;5069107;28;19915;-61
2021/07/17 01:37:53;;;;;;;;;;;18.40;1.00;;;;;;5069213;28;19912;-61
2021/07/17 01:40:20;;;;;;;;;;;18.30;1.00;;;;;;5069563;28;20010;-61
2021/07/17 01:42:46;;;;;;;;;;;18.30;1.00;;;;;;5068959;28;19999;-61
2021/07/17 01:45:19;;;;;;;;;;;18.30;1.00;;;;;;5069339;28;19908;-60
2021/07/17 01:47:44;;;;;;;;;;;18.20;1.00;;;;;;5068670;28;20323;-60
2021/07/17 01:50:10;;;;;;;;;;;18.20;1.00;;;;;;5069053;28;19908;-61
2021/07/17 01:52:36;;;;;;;;;;;18.10;1.00;;;;;;5069088;28;19935;-62
2021/07/17 01:55:01;;;;;;;;;;;18.10;1.00;;;;;;5069211;28;20269;-61
2021/07/17 01:57:27;;;;;;;;;;;18.10;1.00;;;;;;5066894;28;19923;-61
2021/07/17 01:59:52;;;;;;;;;;;18.10;1.00;;;;;;5069164;28;20373;-61
2021/07/17 02:02:18;;;;;;;;;;;18.10;1.00;;;;;;5069217;28;19920;-61
2021/07/17 02:04:43;;;;;;;;;;;18.10;1.00;;;;;;5081764;28;19912;-61
2021/07/17 02:07:09;;;;;;;;;;;18.00;1.00;;;;;;5089385;28;19915;-62
2021/07/17 02:09:34;;;;;;;;;;;18.00;1.00;;;;;;5088716;28;19936;-60
2021/07/17 02:12:03;;;;;;;;;;;18.00;1.00;;;;;;5088115;28;19908;-61
2021/07/17 02:14:36;;;;;;;;;;;18.00;1.00;;;;;;5073561;28;20015;-60
2021/07/17 02:17:02;;;;;;;;;;;17.90;1.00;;;;;;5069321;28;20003;-61
2021/07/17 02:19:27;;;;;;;;;;;17.90;1.00;;;;;;5067863;28;20011;-60
2021/07/17 02:21:53;;;;;;;;;;;17.90;1.00;;;;;;5068693;28;20015;-60
2021/07/17 02:24:19;;;;;;;;;;;17.90;1.00;;;;;;5068807;28;19919;-60
2021/07/17 02:26:44;;;;;;;;;;;17.90;1.00;;;;;;5068068;28;19950;-60
2021/07/17 02:29:10;;;;;;;;;;;18.00;1.00;;;;;;5067376;28;20040;-60
2021/07/17 02:31:36;;;;;;;;;;;18.00;1.00;;;;;;5068520;28;19912;-60
2021/07/17 02:34:03;;;;;;;;;;;18.00;1.00;;;;;;5068109;28;20285;-60
2021/07/17 02:36:29;;;;;;;;;;;18.00;1.00;;;;;;5068673;28;20361;-60
2021/07/17 02:38:54;;;;;;;;;;;18.00;1.00;;;;;;5067602;28;19914;-58
2021/07/17 02:41:21;;;;;;;;;;;18.00;1.00;;;;;;5068175;28;19966;-60
2021/07/17 02:43:47;;;;;;;;;;;18.00;1.00;;;;;;5067020;28;20336;-60
2021/07/17 02:46:13;;;;;;;;;;;17.90;1.00;;;;;;5068788;28;19947;-61
2021/07/17 02:48:38;;;;;;;;;;;17.90;1.00;;;;;;5066844;28;19912;-60
2021/07/17 02:51:03;;;;;;;;;;;17.90;1.00;;;;;;5068845;28;19915;-59
2021/07/17 02:53:29;;;;;;;;;;;18.00;1.00;;;;;;5068224;28;20303;-60
2021/07/17 02:55:55;;;;;;;;;;;18.00;1.00;;;;;;5068205;28;19961;-60
2021/07/17 02:58:20;;;;;;;;;;;18.00;1.00;;;;;;5066467;28;20377;-60
2021/07/17 03:00:47;;;;;;;;;;;18.00;1.00;;;;;;5067708;28;19920;-60
2021/07/17 03:03:13;;;;;;;;;;;18.10;1.00;;;;;;5068182;28;19913;-60
2021/07/17 03:05:38;;;;;;;;;;;18.10;1.00;;;;;;5067712;28;19965;-61
2021/07/17 03:08:05;;;;;;;;;;;18.10;1.00;;;;;;5067341;28;19915;-60
2021/07/17 03:10:31;;;;;;;;;;;18.00;1.00;;;;;;5066754;28;20369;-60
2021/07/17 03:12:56;;;;;;;;;;;18.00;1.00;;;;;;5066899;28;20392;-60
2021/07/17 03:15:22;;;;;;;;;;;17.90;1.00;;;;;;5068240;28;20032;-60
2021/07/17 03:17:47;;;;;;;;;;;17.80;1.00;;;;;;5067589;28;19913;-59
2021/07/17 03:20:13;;;;;;;;;;;17.80;1.00;;;;;;5067610;28;19913;-60
2021/07/17 03:22:39;;;;;;;;;;;17.80;1.00;;;;;;5068027;28;19919;-60
2021/07/17 03:25:05;;;;;;;;;;;17.70;1.00;;;;;;5067947;28;19916;-61
2021/07/17 03:27:30;;;;;;;;;;;17.70;1.00;;;;;;5066353;28;20085;-60
2021/07/17 03:29:56;;;;;;;;;;;17.70;1.00;;;;;;5067408;28;20433;-61
2021/07/17 03:32:22;;;;;;;;;;;17.70;1.00;;;;;;5067638;28;19912;-61
2021/07/17 03:34:48;;;;;;;;;;;17.70;1.00;;;;;;5066953;28;19951;-61
2021/07/17 03:37:13;;;;;;;;;;;17.70;1.00;;;;;;5067269;28;19944;-61
2021/07/17 03:39:39;;;;;;;;;;;17.80;1.00;;;;;;5067361;28;20316;-61
2021/07/17 03:42:04;;;;;;;;;;;17.90;1.00;;;;;;5066066;28;19928;-61
2021/07/17 03:44:30;;;;;;;;;;;17.90;1.00;;;;;;5067709;28;19931;-61
2021/07/17 03:46:56;;;;;;;;;;;17.90;1.00;;;;;;5068079;28;19908;-61
2021/07/17 03:49:21;;;;;;;;;;;17.90;1.00;;;;;;5066639;28;20322;-61
2021/07/17 03:51:47;;;;;;;;;;;18.00;1.00;;;;;;5067869;28;19992;-61
2021/07/17 03:54:12;;;;;;;;;;;18.10;1.00;;;;;;5067252;28;19909;-61
2021/07/17 03:56:38;;;;;;;;;;;18.10;1.00;;;;;;5066537;28;19996;-61
2021/07/17 03:59:03;;;;;;;;;;;18.20;1.00;;;;;;5066551;28;19928;-61
2021/07/17 04:01:29;;;;;;;;;;;18.20;1.00;;;;;;5067703;28;19923;-60
2021/07/17 04:03:54;;;;;;;;;;;18.20;1.00;;;;;;5065180;28;20294;-61
2021/07/17 04:06:20;;;;;;;;;;;18.30;1.00;;;;;;5064855;28;20376;-63
2021/07/17 04:08:45;;;;;;;;;;;18.40;1.00;;;;;;5066273;28;19913;-62
2021/07/17 04:11:11;;;;;;;;;;;18.40;1.00;;;;;;5067173;28;20043;-62
2021/07/17 04:13:36;;;;;;;;;;;18.50;1.00;;;;;;5065881;28;20422;-61
2021/07/17 04:16:02;;;;;;;;;;;18.50;1.00;;;;;;5066742;28;20002;-59
2021/07/17 04:18:27;;;;;;;;;;;18.50;1.00;;;;;;5068565;28;20103;-62
2021/07/17 04:20:53;;;;;;;;;;;18.50;1.00;;;;;;5070766;28;20019;-60
2021/07/17 04:23:18;;;;;;;;;;;18.50;1.00;;;;;;5070891;28;19913;-61
2021/07/17 04:25:44;;;;;;;;;;;18.60;1.00;;;;;;5070016;28;19916;-62
2021/07/17 04:28:09;;;;;;;;;;;18.50;1.00;;;;;;5068861;28;19916;-61
2021/07/17 04:30:35;;;;;;;;;;;18.60;1.00;;;;;;5070938;28;19969;-58
2021/07/17 04:33:00;;;;;;;;;;;18.60;1.00;;;;;;5070623;28;19908;-58
2021/07/17 04:35:26;;;;;;;;;;;18.60;1.00;;;;;;5069789;28;19912;-60
2021/07/17 04:37:51;;;;;;;;;;;18.60;1.00;;;;;;5070086;28;20180;-59
2021/07/17 04:40:17;;;;;;;;;;;18.60;1.00;;;;;;5070469;28;19912;-60
2021/07/17 04:42:42;;;;;;;;;;;18.60;1.00;;;;;;5070234;28;19946;-57
2021/07/17 04:45:08;;;;;;;;;;;18.60;1.00;;;;;;5071133;28;19916;-58
2021/07/17 04:47:34;;;;;;;;;;;18.70;1.00;;;;;;5070163;28;20270;-60
2021/07/17 04:50:02;;;;;;;;;;;18.70;1.00;;;;;;5070556;28;19962;-60
2021/07/17 04:52:29;;;;;;;;;;;18.70;1.00;;;;;;5070564;28;19968;-60
2021/07/17 04:54:55;;;;;;;;;;;18.70;1.00;;;;;;5070548;28;19913;-57
2021/07/17 04:57:20;;;;;;;;;;;18.80;1.00;;;;;;5069042;28;19908;-60
2021/07/17 04:59:46;;;;;;;;;;;18.80;1.00;;;;;;5070673;28;19966;-69
2021/07/17 05:02:11;;;;;;;;;;;18.80;1.00;;;;;;5052537;28;19973;-62
2021/07/17 05:04:37;;;;;;;;;;;18.80;1.00;;;;;;5081923;28;19920;-61
2021/07/17 05:07:02;;;;;;;;;;;18.80;1.00;;;;;;5091485;28;19908;-62
2021/07/17 05:09:28;;;;;;;;;;;18.70;1.00;;;;;;5090376;28;20295;-60
2021/07/17 05:11:53;;;;;;;;;;;18.70;1.00;;;;;;5090331;28;19912;-63
2021/07/17 05:14:19;;;;;;;;;;;18.70;1.00;;;;;;5077338;28;20274;-63
2021/07/17 05:16:44;;;;;;;;;;;18.80;1.00;;;;;;5065347;28;20010;-62
2021/07/17 05:19:10;;;;;;;;;;;18.70;1.00;;;;;;5069418;28;19964;-63
2021/07/17 05:21:36;;;;;;;;;;;18.70;1.00;;;;;;5071150;28;19920;-59
2021/07/17 05:24:02;;;;;;;;;;;18.70;1.00;;;;;;5070715;28;19965;-63
2021/07/17 05:26:28;;;;;;;;;;;18.70;1.00;;;;;;5070274;28;19909;-64
2021/07/17 05:28:53;;;;;;;;;;;18.70;1.00;;;;;;5068366;28;20061;-64
2021/07/17 05:31:19;;;;;;;;;;;18.80;1.00;;;;;;5070790;28;19909;-63
2021/07/17 05:33:44;;;;;;;;;;;18.80;1.00;;;;;;5070047;28;19916;-64
2021/07/17 05:36:10;;;;;;;;;;;18.80;1.00;;;;;;5070255;28;19908;-64
2021/07/17 05:38:35;;;;;;;;;;;18.90;1.00;;;;;;5069166;28;19961;-63
2021/07/17 05:41:01;;;;;;;;;;;18.90;1.00;;;;;;5069436;28;20659;-62
2021/07/17 05:43:26;;;;;;;;;;;18.90;1.00;;;;;;5055953;28;20326;-64
2021/07/17 05:45:53;;;;;;;;;;;18.90;1.00;;;;;;5050371;28;19991;-63
2021/07/17 05:48:19;;;;;;;;;;;19.00;1.00;;;;;;5058345;28;19912;-64
2021/07/17 05:50:45;;;;;;;;;;;19.00;1.00;;;;;;5069413;28;19909;-62
2021/07/17 05:53:10;;;;;;;;;;;19.00;1.00;;;;;;5069635;28;19919;-63
2021/07/17 05:55:36;;;;;;;;;;;19.00;1.00;;;;;;5069625;28;20022;-64
2021/07/17 05:58:02;;;;;;;;;;;19.00;1.00;;;;;;5068065;28;19908;-65
2021/07/17 06:00:27;;;;;;;;;;;19.00;1.00;;;;;;5069838;28;20600;-62
2021/07/17 06:02:53;;;;;;;;;;;19.00;1.00;;;;;;5068957;28;20295;-64
2021/07/17 06:05:18;;;;;;;;;;;19.00;1.00;;;;;;5086600;28;19955;-63
2021/07/17 06:07:44;;;;;;;;;;;19.00;1.00;;;;;;5080241;28;20557;-63
2021/07/17 06:10:10;;;;;;;;;;;19.00;1.00;;;;;;5069489;28;19920;-64
2021/07/17 06:12:35;;;;;;;;;;;19.10;1.00;;;;;;5067907;28;20046;-63
2021/07/17 06:15:01;;;;;;;;;;;19.10;1.00;;;;;;5050640;28;20003;-64
2021/07/17 06:17:26;;;;;;;;;;;19.10;1.00;;;;;;5068629;28;20003;-64
2021/07/17 06:19:52;;;;;;;;;;;19.10;1.00;;;;;;5068609;28;20330;-66
2021/07/17 06:22:17;;;;;;;;;;;19.10;1.00;;;;;;5069366;28;19920;-65
2021/07/17 06:24:43;;;;;;;;;;;19.10;1.00;;;;;;5069309;28;19912;-66
2021/07/17 06:27:09;;;;;;;;;;;19.10;1.00;;;;;;5067943;28;19912;-64
2021/07/17 06:29:35;;;;;;;;;;;19.20;1.00;;;;;;5068861;28;19912;-66
2021/07/17 06:32:01;;;;;;;;;;;19.20;1.00;;;;;;5067117;28;19908;-65
2021/07/17 06:34:26;;;;;;;;;;;19.30;1.00;;;;;;5048886;28;19917;-66
2021/07/17 06:36:52;;;;;;;;;;;19.30;1.00;;;;;;5049153;28;19913;-62
2021/07/17 06:39:17;;;;;;;;;;;19.40;1.00;;;;;;5048896;28;19983;-66
2021/07/17 06:41:43;;;;;;;;;;;19.30;1.00;;;;;;5048116;28;19919;-64
2021/07/17 06:44:09;;;;;;;;;;;19.40;1.00;;;;;;5049224;28;19908;-66
2021/07/17 06:46:34;;;;;;;;;;;19.50;1.00;;;;;;5069048;28;20362;-65
2021/07/17 06:49:00;;;;;;;;;;;19.50;1.00;;;;;;5067338;28;20310;-65
2021/07/17 06:51:26;;;;;;;;;;;19.60;1.00;;;;;;5069145;28;19914;-64
2021/07/17 06:53:51;;;;;;;;;;;19.60;1.00;;;;;;5069158;28;19914;-63
2021/07/17 06:56:17;;;;;;;;;;;19.70;1.00;;;;;;5068872;28;19912;-63
2021/07/17 06:58:43;;;;;;;;;;;19.70;1.00;;;;;;5066573;28;20280;-63
2021/07/17 07:01:08;;;;;;;;;;;19.70;1.00;;;;;;5068969;28;19916;-63
2021/07/17 07:03:34;;;;;;;;;;;19.70;1.00;;;;;;5068534;28;19966;-63
2021/07/17 07:05:59;;;;;;;;;;;19.80;1.00;;;;;;5069219;28;20336;-60
2021/07/17 07:08:25;;;;;;;;;;;19.80;1.00;;;;;;5068203;28;19917;-60
2021/07/17 07:10:51;;;;;;;;;;;19.90;1.00;;;;;;5068813;28;19921;-63
2021/07/17 07:13:16;;;;;;;;;;;19.90;1.00;;;;;;5067819;28;19917;-62
2021/07/17 07:15:42;;;;;;;;;;;19.90;1.00;;;;;;5068835;28;20007;-61
2021/07/17 07:18:08;;;;;;;;;;;20.00;1.00;;;;;;5068319;28;19999;-63
2021/07/17 07:20:34;;;;;;;;;;;20.00;1.00;;;;;;5068129;28;19913;-64
2021/07/17 07:23:00;;;;;;;;;;;20.10;1.00;;;;;;5068900;28;19989;-65
2021/07/17 07:25:25;;;;;;;;;;;20.10;1.00;;;;;;5068215;28;19932;-64
2021/07/17 07:27:51;;;;;;;;;;;20.30;1.00;;;;;;5067583;28;20646;-63
2021/07/17 07:30:17;;;;;;;;;;;20.40;1.00;;;;;;5069150;28;19913;-64
2021/07/17 07:32:42;;;;;;;;;;;20.50;99.90;;;;;;5068460;28;19908;-63
2021/07/17 07:35:08;;;;;;;;;;;20.60;99.90;;;;;;5068466;28;19930;-64
2021/07/17 07:37:33;;;;;;;;;;;20.70;99.90;;;;;;5067357;28;19916;-61
2021/07/17 07:39:59;;;;;;;;;;;20.90;2.30;;;;;;5068573;28;19916;-63
2021/07/17 07:42:25;;;;;;;;;;;21.10;1.00;;;;;;5066969;28;19916;-63
2021/07/17 07:44:51;;;;;;;;;;;21.10;1.00;;;;;;5068691;28;19966;-62
2021/07/17 07:47:16;;;;;;;;;;;21.10;99.90;;;;;;5067503;28;19931;-63
2021/07/17 07:49:42;;;;;;;;;;;20.90;1.00;;;;;;5067975;28;19931;-62
2021/07/17 07:52:09;;;;;;;;;;;20.90;1.00;;;;;;5068918;28;19919;-62
2021/07/17 07:54:35;;;;;;;;;;;20.90;1.00;;;;;;5072436;28;19931;-63
2021/07/17 07:57:00;;;;;;;;;;;21.00;1.00;;;;;;5070966;28;19916;-63
2021/07/17 07:59:26;;;;;;;;;;;20.90;1.00;;;;;;5070990;28;20353;-63
2021/07/17 08:01:51;;;;;;;;;;;21.00;1.00;;;;;;5071764;28;19916;-62
2021/07/17 08:04:17;;;;;;;;;;;20.90;1.00;;;;;;5071454;28;19924;-65
2021/07/17 08:06:42;;;;;;;;;;;21.00;1.00;;;;;;5072670;28;19923;-63
2021/07/17 08:09:08;;;;;;;;;;;21.00;1.00;;;;;;5071448;28;19915;-62
2021/07/17 08:11:33;;;;;;;;;;;21.00;99.90;;;;;;5067835;22;20394;-64
2021/07/17 08:13:59;;;;;;;;;;;20.90;1.00;;;;;;5050765;28;19915;-64
2021/07/17 08:16:24;;;;;;;;;;;20.90;1.00;;;;;;5051757;28;19959;-64
2021/07/17 08:18:50;;;;;;;;;;;20.90;1.00;;;;;;5049753;28;19963;-64
2021/07/17 08:21:15;;;;;;;;;;;20.90;1.00;;;;;;5051538;28;20447;-65
2021/07/17 08:23:41;;;;;;;;;;;20.80;1.00;;;;;;5050973;28;19981;-64
2021/07/17 08:26:06;;;;;;;;;;;20.80;1.00;;;;;;5051137;28;20394;-64
2021/07/17 08:28:32;;;;;;;;;;;20.80;1.00;;;;;;5049602;28;19927;-64
2021/07/17 08:30:58;;;;;;;;;;;20.80;1.00;;;;;;5051317;28;19909;-63
2021/07/17 08:33:23;;;;;;;;;;;20.80;1.00;;;;;;5050922;28;19915;-64
2021/07/17 08:35:48;;;;;;;;;;;20.80;1.00;;;;;;5051437;28;20019;-64
2021/07/17 08:38:14;;;;;;;;;;;20.90;1.00;;;;;;5050617;28;20039;-64
2021/07/17 08:40:40;;;;;;;;;;;20.90;1.00;;;;;;5050877;28;19934;-64
2021/07/17 08:43:06;;;;;;;;;;;20.90;1.00;;;;;;5050125;28;19912;-64
2021/07/17 08:45:31;;;;;;;;;;;20.90;1.00;;;;;;5049927;28;20257;-64
2021/07/17 08:47:57;;;;;;;;;;;20.80;1.00;;;;;;5049779;28;19917;-64
2021/07/17 08:50:25;;;;;;;;;;;20.70;1.00;;;;;;5050535;28;19963;-63
2021/07/17 08:52:52;;;;;;;;;;;20.70;1.00;;;;;;5051003;28;19920;-64
2021/07/17 08:55:18;;;;;;;;;;;20.90;1.00;;;;;;5047175;28;19908;-64
2021/07/17 08:57:43;;;;;;;;;;;21.10;1.00;;;;;;5046780;28;20527;-64
2021/07/17 09:00:09;;;;;;;;;;;21.10;1.00;;;;;;5050122;28;20298;-64
2021/07/17 09:02:38;;;;;;;;;;;21.20;99.90;;;;;;5050568;28;19981;-64
2021/07/17 09:05:05;;;;;;;;;;;21.30;99.90;;;;;;5035451;28;19920;-64
2021/07/17 09:07:30;;;;;;;;;;;21.40;1.00;;;;;;5029840;28;19961;-64
2021/07/17 09:09:56;;;;;;;;;;;21.50;1.00;;;;;;5038524;28;20333;-60
2021/07/17 09:12:25;;;;;;;;;;;21.70;99.90;;;;;;5028715;28;19923;-60
2021/07/17 09:14:52;;;;;;;;;;;22.10;1.00;;;;;;5030575;28;19909;-62
2021/07/17 09:17:28;;;;;;;;;;;22.30;1.00;;;;;;5030794;28;19913;-64
2021/07/17 09:19:58;;;;;;;;;;;22.40;99.90;;;;;;5039829;28;19917;-63
2021/07/17 09:22:37;;;;;;;;;;;22.40;1.00;;;;;;5048532;28;20351;-64
2021/07/17 09:25:09;;;;;;;;;;;22.70;1.00;;;;;;5050515;28;20301;-63
2021/07/17 09:27:34;;;;;;;;;;;23.20;99.90;;;;;;5048563;28;20449;-63
2021/07/17 09:30:00;;;;;;;;;;;23.70;1.00;;;;;;5050578;28;20361;-64
2021/07/17 09:32:25;;;;;;;;;;;24.00;1.00;;;;;;5048763;28;20004;-64
2021/07/17 09:34:51;;;;;;;;;;;23.80;99.90;;;;;;5048582;28;19983;-64
2021/07/17 09:37:21;;;;;;;;;;;23.50;99.90;;;;;;5050006;28;19917;-64
2021/07/17 09:39:49;;;;;;;;;;;23.40;99.90;;;;;;5050209;28;19952;-64
2021/07/17 09:42:16;;;;;;;;;;;23.20;99.90;;;;;;5048498;28;19963;-64
2021/07/17 09:44:42;;;;;;;;;;;23.10;1.00;;;;;;5049963;28;19919;-64
2021/07/17 09:47:25;;;;;;;;;;;23.00;1.00;;;;;;5047183;28;19990;-64
2021/07/17 09:50:09;;;;;;;;;;;23.00;1.00;;;;;;5027496;28;19909;-64
2021/07/17 09:52:40;;;;;;;;;;;23.30;1.00;;;;;;5009655;28;19968;-64
2021/07/17 09:55:05;;;;;;;;;;;23.80;99.90;;;;;;5027644;28;19956;-64
2021/07/17 09:57:32;;;;;;;;;;;24.00;99.90;;;;;;5031140;28;19967;-64
2021/07/17 10:00:02;;;;;;;;;;;24.00;99.90;;;;;;5047520;28;19996;-62
2021/07/17 10:02:29;;;;;;;;;;;23.90;99.90;;;;;;5046164;28;19917;-64
2021/07/17 10:04:55;;;;;;;;;;;23.60;99.90;;;;;;5044405;28;20418;-64
2021/07/17 10:07:21;;;;;;;;;;;23.30;99.90;;;;;;5046910;28;19916;-65
2021/07/17 10:09:48;;;;;;;;;;;23.10;99.90;;;;;;5047070;28;19916;-70
2021/07/17 10:12:14;;;;;;;;;;;22.90;99.90;;;;;;5042767;28;20027;-65
2021/07/17 10:14:40;;;;;;;;;;;22.70;1.00;;;;;;5031643;28;19935;-72
2021/07/17 10:17:05;;;;;;;;;;;22.40;1.00;;;;;;5050317;28;20621;-65
2021/07/17 10:19:31;;;;;;;;;;;22.30;1.00;;;;;;5048715;28;19920;-65
2021/07/17 10:21:57;;;;;;;;;;;22.30;1.00;;;;;;5048347;28;19912;-66
2021/07/17 10:24:23;;;;;;;;;;;22.30;1.00;;;;;;5049278;28;20019;-64
2021/07/17 10:26:51;;;;;;;;;;;22.30;1.00;;;;;;5048447;28;19923;-64
2021/07/17 10:29:16;;;;;;;;;;;22.30;1.00;;;;;;5048745;28;19913;-62
2021/07/17 10:31:43;;;;;;;;;;;22.30;1.00;;;;;;5049037;28;19909;-65
2021/07/17 10:34:08;;;;;;;;;;;22.40;1.00;;;;;;5048511;28;20337;-65
2021/07/17 10:36:35;;;;;;;;;;;22.40;1.00;;;;;;5048856;28;19909;-63
2021/07/17 10:39:05;;;;;;;;;;;22.50;1.00;;;;;;5048346;28;19909;-65
2021/07/17 10:41:32;;;;;;;;;;;22.60;1.00;;;;;;5046848;28;20019;-66
2021/07/17 10:43:57;;;;;;;;;;;22.60;1.00;;;;;;5030283;28;20391;-62
2021/07/17 10:46:29;;;;;;;;;;;22.70;1.00;;;;;;5021558;28;19917;-61
2021/07/17 10:48:55;;;;;;;;;;;22.70;1.00;;;;;;5045639;28;19908;-65
2021/07/17 10:51:26;;;;;;;;;;;22.90;1.00;;;;;;5046999;28;20393;-65
2021/07/17 10:53:56;;;;;;;;;;;23.20;1.00;;;;;;5046607;28;19913;-64
2021/07/17 10:56:24;;;;;;;;;;;23.40;1.00;;;;;;5065205;28;19912;-65
2021/07/17 10:58:50;;;;;;;;;;;23.60;1.00;;;;;;5045021;28;19924;-64
2021/07/17 11:01:15;;;;;;;;;;;23.50;1.00;;;;;;5040481;28;19932;-64
2021/07/17 11:03:41;;;;;;;;;;;23.50;1.00;;;;;;5048388;28;20327;-64
2021/07/17 11:06:24;;;;;;;;;;;23.70;1.00;;;;;;5048774;28;19913;-64
2021/07/17 11:08:51;;;;;;;;;;;24.40;99.90;;;;;;5037473;28;19917;-64
2021/07/17 11:11:34;;;;;;;;;;;25.00;99.90;;;;;;5062663;28;19916;-64
2021/07/17 11:14:05;;;;;;;;;;;25.00;1.00;;;;;;5061186;28;20287;-62
2021/07/17 11:16:41;;;;;;;;;;;25.10;1.00;;;;;;5028341;28;19913;-63
2021/07/17 11:19:16;;;;;;;;;;;25.10;1.00;;;;;;5031137;28;19958;-64
2021/07/17 11:21:42;;;;;;;;;;;24.90;1.00;;;;;;5030326;28;19913;-63
2021/07/17 11:24:09;;;;;;;;;;;24.70;1.00;;;;;;5048490;28;19920;-63
2021/07/17 11:26:34;;;;;;;;;;;24.30;1.00;;;;;;5053742;28;19909;-63
2021/07/17 11:29:04;;;;;;;;;;;24.30;1.00;;;;;;5059059;28;20464;-65
2021/07/17 11:31:31;;;;;;;;;;;24.20;1.00;;;;;;5049903;28;20388;-65
2021/07/17 11:34:17;;;;;;;;;;;24.00;1.00;;;;;;5052133;28;19927;-65
2021/07/17 11:36:42;;;;;;;;;;;24.00;1.40;;;;;;5052620;28;19909;-65
2021/07/17 11:39:09;;;;;;;;;;;24.00;4.50;;;;;;5033280;28;19962;-64
2021/07/17 11:41:34;;;;;;;;;;;24.00;1.00;;;;;;5051124;28;20022;-65
2021/07/17 11:44:04;;;;;;;;;;;23.90;1.00;;;;;;5052094;28;19959;-65
2021/07/17 11:46:30;;;;;;;;;;;24.00;1.00;;;;;;5052753;28;19912;-64
2021/07/17 11:49:05;;;;;;;;;;;23.90;1.00;;;;;;5056103;28;19913;-64
2021/07/17 11:51:31;;;;;;;;;;;23.80;14.00;;;;;;5057113;28;19918;-64
2021/07/17 11:53:58;;;;;;;;;;;23.60;38.20;;;;;;5058216;28;19908;-64
2021/07/17 11:56:23;;;;;;;;;;;23.40;99.90;;;;;;5060008;28;19962;-64
2021/07/17 11:58:49;;;;;;;;;;;23.10;99.90;;;;;;5057007;28;19912;-64
2021/07/17 12:01:16;;;;;;;;;;;23.10;99.90;;;;;;5058140;28;19925;-64
2021/07/17 12:03:42;;;;;;;;;;;23.10;99.90;;;;;;5066215;28;19957;-64
2021/07/17 12:06:07;;;;;;;;;;;23.10;99.90;;;;;;5056304;28;20015;-63
2021/07/17 12:08:33;;;;;;;;;;;23.30;99.90;;;;;;5051537;28;19912;-64
2021/07/17 12:10:58;;;;;;;;;;;23.40;99.90;;;;;;5051418;28;19917;-64
2021/07/17 12:13:25;;;;;;;;;;;23.30;99.90;;;;;;5052025;28;20028;-64
2021/07/17 12:15:51;;;;;;;;;;;23.50;99.90;;;;;;5053492;28;19915;-64
2021/07/17 12:18:22;;;;;;;;;;;23.80;99.90;;;;;;5051601;28;19908;-64
2021/07/17 12:20:48;;;;;;;;;;;24.00;99.90;;;;;;5051161;28;20321;-64
2021/07/17 12:23:15;;;;;;;;;;;24.10;99.90;;;;;;5051301;28;19952;-63
2021/07/17 12:25:41;;;;;;;;;;;24.00;92.80;;;;;;5050906;28;19950;-63
2021/07/17 12:28:17;;;;;;;;;;;24.10;90.10;;;;;;5050185;28;20012;-64
2021/07/17 12:30:53;;;;;;;;;;;24.10;56.00;;;;;;5051073;28;19925;-64
2021/07/17 12:33:21;;;;;;;;;;;24.30;54.70;;;;;;5050376;28;19916;-64
2021/07/17 12:35:47;;;;;;;;;;;25.00;1.00;;;;;;5051528;28;19978;-65
2021/07/17 12:38:23;;;;;;;;;;;25.40;1.00;;;;;;5050258;28;19913;-65
2021/07/17 12:40:50;;;;;;;;;;;25.50;1.00;;;;;;5050406;28;19916;-63
2021/07/17 12:43:23;;;;;;;;;;;25.60;1.00;;;;;;5050045;28;19919;-64
2021/07/17 12:46:09;;;;;;;;;;;25.90;1.00;;;;;;5051103;28;19916;-63
2021/07/17 12:48:52;;;;;;;;;;;25.80;1.00;;;;;;5037276;28;19935;-63
2021/07/17 12:51:20;;;;;;;;;;;25.50;1.00;;;;;;5031098;28;20361;-63
2021/07/17 12:53:46;;;;;;;;;;;25.30;1.00;;;;;;5030936;28;19979;-63
2021/07/17 12:56:15;;;;;;;;;;;25.50;1.00;;;;;;5030766;28;20389;-65
2021/07/17 12:58:42;;;;;;;;;;;25.70;1.00;;;;;;5029705;28;20285;-63
2021/07/17 13:01:09;;;;;;;;;;;25.60;1.00;;;;;;5030867;28;19955;-64
2021/07/17 13:03:35;;;;;;;;;;;25.50;1.00;;;;;;5047130;28;20763;-64
2021/07/17 13:06:00;;;;;;;;;;;25.40;1.00;;;;;;5048771;28;19975;-63
2021/07/17 13:08:27;;;;;;;;;;;25.30;1.00;;;;;;5049032;28;19913;-63
2021/07/17 13:10:54;;;;;;;;;;;25.20;1.00;;;;;;5049387;28;20510;-64
2021/07/17 13:13:30;;;;;;;;;;;25.10;1.00;;;;;;5048831;28;19982;-64
2021/07/17 13:15:56;;;;;;;;;;;25.10;1.00;;;;;;5050290;28;19944;-65
2021/07/17 13:18:23;;;;;;;;;;;25.10;1.00;;;;;;5049040;28;19912;-63
2021/07/17 13:21:19;;;;;;;;;;;25.10;1.00;;;;;;5049689;28;19913;-64
2021/07/17 13:23:57;;;;;;;;;;;25.00;1.00;;;;;;5046207;28;19955;-64
2021/07/17 13:26:27;;;;;;;;;;;24.80;1.00;;;;;;5047182;28;19916;-66
2021/07/17 13:28:54;;;;;;;;;;;24.40;1.00;;;;;;5046100;28;20297;-65
2021/07/17 13:31:21;;;;;;;;;;;24.20;1.00;;;;;;5045275;28;20043;-70
2021/07/17 13:33:47;;;;;;;;;;;24.00;1.00;;;;;;5046508;28;19970;-63
2021/07/17 13:36:12;;;;;;;;;;;23.80;1.00;;;;;;5048064;28;19920;-64
2021/07/17 13:38:38;;;;;;;;;;;23.60;1.00;;;;;;5047113;28;20242;-63
2021/07/17 13:41:07;;;;;;;;;;;23.50;1.00;;;;;;5047406;28;20016;-65
2021/07/17 13:43:33;;;;;;;;;;;23.40;1.00;;;;;;5044787;28;20246;-65
2021/07/17 13:46:02;;;;;;;;;;;23.30;1.00;;;;;;5046726;28;19912;-64
2021/07/17 13:48:28;;;;;;;;;;;23.30;1.00;;;;;;5041697;28;20377;-64
2021/07/17 13:51:02;;;;;;;;;;;23.10;93.60;;;;;;5049136;28;19915;-64
2021/07/17 13:53:27;;;;;;;;;;;23.00;99.90;;;;;;5049708;28;19915;-64
2021/07/17 13:56:03;;;;;;;;;;;22.90;99.90;;;;;;5048707;28;19909;-64
2021/07/17 13:58:28;;;;;;;;;;;22.80;99.90;;;;;;5048450;28;19909;-64
2021/07/17 14:00:54;;;;;;;;;;;22.80;1.00;;;;;;5049854;28;20620;-64
2021/07/17 14:03:23;;;;;;;;;;;23.00;1.00;;;;;;5049160;28;19951;-63
2021/07/17 14:05:53;;;;;;;;;;;23.20;99.90;;;;;;5029509;28;20071;-65
2021/07/17 14:08:19;;;;;;;;;;;23.60;99.90;;;;;;5028319;28;19948;-65
2021/07/17 14:10:45;;;;;;;;;;;24.00;99.90;;;;;;5059208;22;19964;-66
2021/07/17 14:13:11;;;;;;;;;;;24.30;98.80;;;;;;5066465;28;20003;-66
2021/07/17 14:15:37;;;;;;;;;;;24.50;10.40;;;;;;5077062;28;19999;-65
2021/07/17 14:18:03;;;;;;;;;;;24.70;1.00;;;;;;5087422;28;20010;-66
2021/07/17 14:20:29;;;;;;;;;;;24.70;1.00;;;;;;5074381;28;19916;-66
2021/07/17 14:22:54;;;;;;;;;;;24.60;1.00;;;;;;5069671;28;19916;-64
2021/07/17 14:25:20;;;;;;;;;;;24.30;1.00;;;;;;5069104;28;20017;-62